Terminal Aerodrome Forecast
Issued by NWS

Home | Current Version | Previous Version | Text Only | Print | Product List | Glossary On
Versions: 1 2 3 4 5 6 7 8 9 10 11 12 13 14 15
000
FTUS44 KLIX 240520
TAFHUM
TAF
KHUM 240520Z 2406/2506 00000KT P6SM SCT035 BKN150
     FM240900 VRB03KT P6SM VCTS SCT030CB BKN100
     FM241200 23005KT P6SM SCT030 BKN090
      TEMPO 2412/2415 4SM TSRA BKN025CB BKN030
     FM241500 24009KT P6SM -SHRA VCTS SCT025CB BKN090
     FM241800 26007KT P6SM SCT025 BKN100 PROB30 2418/2424 4SM TSRA
      BKN025CB BKN030
     FM250000 23007KT P6SM SCT030 BKN150=

USA.gov is the U.S. government's official web portal to all federal, state and local government web resources and services.